sensor_id;sensor_type;location;lat;lon;timestamp;pressure;altitude;pressure_sealevel;temperature;humidity
35908;BME280;22003;50.320;8.054;2022-08-11T04:12:40;100283.03;;;12.05;85.87
35908;BME280;22003;50.320;8.054;2022-08-11T04:21:40;100270.31;;;11.74;87.61
35908;BME280;22003;50.320;8.054;2022-08-11T04:24:26;100259.56;;;11.75;88.25
35908;BME280;22003;50.320;8.054;2022-08-11T04:48:18;100301.50;;;12.64;86.26
35908;BME280;22003;50.320;8.054;2022-08-11T05:01:18;100303.66;;;13.38;83.53
35908;BME280;22003;50.320;8.054;2022-08-11T05:10:47;100309.03;;;13.70;80.66
35908;BME280;22003;50.320;8.054;2022-08-11T05:13:44;100313.31;;;13.93;80.53
35908;BME280;22003;50.320;8.054;2022-08-11T05:16:32;100315.84;;;13.95;80.96
35908;BME280;22003;50.320;8.054;2022-08-11T05:19:19;100323.63;;;13.87;81.59
35908;BME280;22003;50.320;8.054;2022-08-11T05:22:07;100316.69;;;13.95;80.73
35908;BME280;22003;50.320;8.054;2022-08-11T05:24:58;100325.38;;;14.30;80.09
35908;BME280;22003;50.320;8.054;2022-08-11T05:27:49;100287.66;;;14.13;80.00
35908;BME280;22003;50.320;8.054;2022-08-11T05:30:38;100298.47;;;14.33;79.59
35908;BME280;22003;50.320;8.054;2022-08-11T05:33:31;100318.25;;;14.72;78.89
35908;BME280;22003;50.320;8.054;2022-08-11T05:39:21;100326.44;;;15.11;78.87
35908;BME280;22003;50.320;8.054;2022-08-11T05:42:07;100348.28;;;14.95;79.65
35908;BME280;22003;50.320;8.054;2022-08-11T05:44:54;100322.38;;;14.86;79.59
35908;BME280;22003;50.320;8.054;2022-08-11T05:47:40;100318.38;;;15.01;77.86
35908;BME280;22003;50.320;8.054;2022-08-11T05:50:25;100326.09;;;15.35;77.13
35908;BME280;22003;50.320;8.054;2022-08-11T05:53:12;100343.03;;;15.64;76.59
35908;BME280;22003;50.320;8.054;2022-08-11T05:56:04;100305.75;;;15.53;78.57
35908;BME280;22003;50.320;8.054;2022-08-11T05:58:52;100340.72;;;16.00;78.20
35908;BME280;22003;50.320;8.054;2022-08-11T06:01:24;100326.22;;;15.83;77.73
35908;BME280;22003;50.320;8.054;2022-08-11T06:03:53;100338.72;;;16.31;77.05
35908;BME280;22003;50.320;8.054;2022-08-11T06:06:39;100336.19;;;16.39;76.76
35908;BME280;22003;50.320;8.054;2022-08-11T06:09:10;100329.84;;;16.50;76.19
35908;BME280;22003;50.320;8.054;2022-08-11T06:11:39;100331.66;;;16.59;75.80
35908;BME280;22003;50.320;8.054;2022-08-11T06:14:06;100335.75;;;16.73;76.27
35908;BME280;22003;50.320;8.054;2022-08-11T06:16:33;100309.97;;;16.62;74.57
35908;BME280;22003;50.320;8.054;2022-08-11T06:18:59;100339.66;;;16.69;73.33
35908;BME280;22003;50.320;8.054;2022-08-11T06:21:25;100340.59;;;16.97;74.12
35908;BME280;22003;50.320;8.054;2022-08-11T06:23:52;100315.31;;;17.09;73.30
35908;BME280;22003;50.320;8.054;2022-08-11T06:26:19;100345.03;;;17.15;72.08
35908;BME280;22003;50.320;8.054;2022-08-11T06:28:46;100324.97;;;17.29;72.75
35908;BME280;22003;50.320;8.054;2022-08-11T06:31:13;100338.41;;;17.75;70.01
35908;BME280;22003;50.320;8.054;2022-08-11T06:34:08;100334.44;;;17.79;69.13
35908;BME280;22003;50.320;8.054;2022-08-11T06:36:54;100316.53;;;17.69;69.09
35908;BME280;22003;50.320;8.054;2022-08-11T06:39:31;100338.13;;;17.96;69.89
35908;BME280;22003;50.320;8.054;2022-08-11T06:44:32;100344.53;;;18.38;69.44
35908;BME280;22003;50.320;8.054;2022-08-11T06:47:06;100331.63;;;18.86;67.50
35908;BME280;22003;50.320;8.054;2022-08-11T06:49:43;100299.31;;;18.43;68.08
35908;BME280;22003;50.320;8.054;2022-08-11T06:52:30;100315.44;;;18.69;65.89
35908;BME280;22003;50.320;8.054;2022-08-11T06:54:59;100321.00;;;19.02;63.57
35908;BME280;22003;50.320;8.054;2022-08-11T06:57:33;100329.84;;;19.29;64.12
35908;BME280;22003;50.320;8.054;2022-08-11T07:00:20;100319.78;;;19.31;62.39
35908;BME280;22003;50.320;8.054;2022-08-11T07:03:00;100333.97;;;19.57;62.91
35908;BME280;22003;50.320;8.054;2022-08-11T07:11:36;100332.78;;;20.18;62.36
35908;BME280;22003;50.320;8.054;2022-08-11T07:14:29;100308.41;;;20.12;60.90
35908;BME280;22003;50.320;8.054;2022-08-11T07:17:19;100314.94;;;20.25;59.12
35908;BME280;22003;50.320;8.054;2022-08-11T07:19:50;100299.63;;;20.26;58.93
35908;BME280;22003;50.320;8.054;2022-08-11T07:22:36;100313.44;;;20.39;58.58
35908;BME280;22003;50.320;8.054;2022-08-11T07:25:21;100311.44;;;20.49;58.13
35908;BME280;22003;50.320;8.054;2022-08-11T07:28:11;100312.88;;;20.76;58.19
35908;BME280;22003;50.320;8.054;2022-08-11T07:31:06;100308.28;;;21.01;57.06
35908;BME280;22003;50.320;8.054;2022-08-11T07:33:45;100305.59;;;21.01;56.55
35908;BME280;22003;50.320;8.054;2022-08-11T07:36:12;100302.13;;;21.32;57.12
35908;BME280;22003;50.320;8.054;2022-08-11T07:38:41;100302.03;;;21.48;55.46
35908;BME280;22003;50.320;8.054;2022-08-11T07:41:14;100282.00;;;21.51;54.94
35908;BME280;22003;50.320;8.054;2022-08-11T07:43:41;100300.03;;;21.50;56.25
35908;BME280;22003;50.320;8.054;2022-08-11T07:46:07;100294.78;;;21.80;56.17
35908;BME280;22003;50.320;8.054;2022-08-11T07:48:52;100300.47;;;22.16;56.74
35908;BME280;22003;50.320;8.054;2022-08-11T07:51:40;100293.06;;;22.48;57.32
35908;BME280;22003;50.320;8.054;2022-08-11T07:54:24;100282.47;;;22.46;54.46
35908;BME280;22003;50.320;8.054;2022-08-11T07:56:50;100295.31;;;22.59;54.51
35908;BME280;22003;50.320;8.054;2022-08-11T07:59:17;100296.34;;;22.58;53.81
35908;BME280;22003;50.320;8.054;2022-08-11T08:02:02;100294.56;;;22.88;56.82
35908;BME280;22003;50.320;8.054;2022-08-11T08:04:46;100286.22;;;23.19;52.97
35908;BME280;22003;50.320;8.054;2022-08-11T08:07:31;100288.50;;;23.15;53.16
35908;BME280;22003;50.320;8.054;2022-08-11T08:10:16;100260.53;;;23.08;52.32
35908;BME280;22003;50.320;8.054;2022-08-11T08:13:01;100298.72;;;23.35;53.69
35908;BME280;22003;50.320;8.054;2022-08-11T08:15:45;100284.00;;;23.08;52.78
35908;BME280;22003;50.320;8.054;2022-08-11T08:18:33;100301.19;;;23.66;52.59
35908;BME280;22003;50.320;8.054;2022-08-11T08:21:00;100294.94;;;23.87;52.36
35908;BME280;22003;50.320;8.054;2022-08-11T08:23:37;100294.16;;;24.14;51.14
35908;BME280;22003;50.320;8.054;2022-08-11T08:26:05;100281.94;;;23.76;54.18
35908;BME280;22003;50.320;8.054;2022-08-11T08:28:55;100257.78;;;23.74;51.87
35908;BME280;22003;50.320;8.054;2022-08-11T08:31:41;100262.88;;;23.84;51.51
35908;BME280;22003;50.320;8.054;2022-08-11T08:34:08;100281.03;;;24.33;51.14
35908;BME280;22003;50.320;8.054;2022-08-11T08:36:35;100249.09;;;24.00;50.73
35908;BME280;22003;50.320;8.054;2022-08-11T08:39:00;100282.03;;;24.53;50.69
35908;BME280;22003;50.320;8.054;2022-08-11T08:41:28;100283.63;;;24.75;49.48
35908;BME280;22003;50.320;8.054;2022-08-11T08:43:58;100260.41;;;24.94;49.63
35908;BME280;22003;50.320;8.054;2022-08-11T08:46:29;100278.44;;;24.81;48.46
35908;BME280;22003;50.320;8.054;2022-08-11T08:49:01;100260.09;;;24.48;48.72
35908;BME280;22003;50.320;8.054;2022-08-11T08:51:27;100266.16;;;24.78;48.35
35908;BME280;22003;50.320;8.054;2022-08-11T08:54:07;100279.22;;;24.68;48.29
35908;BME280;22003;50.320;8.054;2022-08-11T08:56:34;100264.50;;;24.84;48.70
35908;BME280;22003;50.320;8.054;2022-08-11T08:59:02;100263.03;;;25.16;47.65
35908;BME280;22003;50.320;8.054;2022-08-11T09:01:32;100272.06;;;25.30;49.47
35908;BME280;22003;50.320;8.054;2022-08-11T09:04:02;100259.16;;;25.38;52.42
35908;BME280;22003;50.320;8.054;2022-08-11T09:06:31;100264.09;;;25.83;47.61
35908;BME280;22003;50.320;8.054;2022-08-11T09:08:57;100256.94;;;25.68;48.18
35908;BME280;22003;50.320;8.054;2022-08-11T09:11:23;100253.88;;;25.78;45.87
35908;BME280;22003;50.320;8.054;2022-08-11T09:14:08;100264.53;;;25.99;46.38
35908;BME280;22003;50.320;8.054;2022-08-11T09:16:35;100240.31;;;26.11;45.21
35908;BME280;22003;50.320;8.054;2022-08-11T09:19:01;100240.28;;;26.31;44.59
35908;BME280;22003;50.320;8.054;2022-08-11T09:21:28;100228.19;;;26.33;45.37
35908;BME280;22003;50.320;8.054;2022-08-11T09:23:55;100254.72;;;26.31;43.95
35908;BME280;22003;50.320;8.054;2022-08-11T09:26:40;100253.69;;;26.32;45.38
35908;BME280;22003;50.320;8.054;2022-08-11T09:29:24;100249.94;;;26.60;45.19
35908;BME280;22003;50.320;8.054;2022-08-11T09:31:51;100228.41;;;26.52;43.75
35908;BME280;22003;50.320;8.054;2022-08-11T09:34:17;100213.97;;;26.31;42.94
35908;BME280;22003;50.320;8.054;2022-08-11T09:36:43;100229.84;;;26.61;43.06
35908;BME280;22003;50.320;8.054;2022-08-11T09:39:29;100235.22;;;26.88;42.33
35908;BME280;22003;50.320;8.054;2022-08-11T09:42:14;100241.31;;;27.34;41.29
35908;BME280;22003;50.320;8.054;2022-08-11T09:44:41;100243.97;;;27.86;42.78
35908;BME280;22003;50.320;8.054;2022-08-11T09:47:20;100231.72;;;27.63;39.38
35908;BME280;22003;50.320;8.054;2022-08-11T09:49:46;100217.81;;;27.47;40.88
35908;BME280;22003;50.320;8.054;2022-08-11T09:52:14;100198.28;;;27.18;39.34
35908;BME280;22003;50.320;8.054;2022-08-11T09:54:41;100225.78;;;27.42;39.53
35908;BME280;22003;50.320;8.054;2022-08-11T09:57:07;100233.16;;;27.73;40.23
35908;BME280;22003;50.320;8.054;2022-08-11T10:00:12;100232.56;;;27.64;40.52
35908;BME280;22003;50.320;8.054;2022-08-11T10:02:42;100232.06;;;27.80;40.46
35908;BME280;22003;50.320;8.054;2022-08-11T10:05:09;100226.91;;;27.72;40.38
35908;BME280;22003;50.320;8.054;2022-08-11T10:07:58;100216.25;;;27.96;40.26
35908;BME280;22003;50.320;8.054;2022-08-11T10:10:25;100219.25;;;27.87;39.88
35908;BME280;22003;50.320;8.054;2022-08-11T10:13:01;100214.94;;;27.73;39.50
35908;BME280;22003;50.320;8.054;2022-08-11T10:15:29;100217.13;;;27.89;39.47
35908;BME280;22003;50.320;8.054;2022-08-11T10:18:03;100213.13;;;28.17;40.46
35908;BME280;22003;50.320;8.054;2022-08-11T10:20:50;100222.44;;;28.34;38.51
35908;BME280;22003;50.320;8.054;2022-08-11T10:23:17;100225.31;;;28.39;38.96
35908;BME280;22003;50.320;8.054;2022-08-11T10:26:03;100221.91;;;28.44;38.94
35908;BME280;22003;50.320;8.054;2022-08-11T10:28:47;100223.41;;;28.15;40.49
35908;BME280;22003;50.320;8.054;2022-08-11T10:31:13;100214.72;;;27.68;39.29
35908;BME280;22003;50.320;8.054;2022-08-11T10:33:58;100221.28;;;27.60;40.06
35908;BME280;22003;50.320;8.054;2022-08-11T10:36:29;100220.75;;;27.83;39.13
35908;BME280;22003;50.320;8.054;2022-08-11T10:38:56;100216.25;;;27.96;39.20
35908;BME280;22003;50.320;8.054;2022-08-11T10:41:23;100181.28;;;27.61;38.80
35908;BME280;22003;50.320;8.054;2022-08-11T10:44:08;100193.09;;;28.55;40.04
35908;BME280;22003;50.320;8.054;2022-08-11T10:46:34;100188.81;;;28.59;39.27
35908;BME280;22003;50.320;8.054;2022-08-11T10:49:19;100200.13;;;28.44;39.61
35908;BME280;22003;50.320;8.054;2022-08-11T10:51:45;100199.72;;;28.59;39.01
35908;BME280;22003;50.320;8.054;2022-08-11T10:54:32;100191.84;;;28.69;38.77
35908;BME280;22003;50.320;8.054;2022-08-11T10:57:17;100197.09;;;28.71;38.35
35908;BME280;22003;50.320;8.054;2022-08-11T11:00:04;100197.00;;;29.14;39.12
35908;BME280;22003;50.320;8.054;2022-08-11T11:02:31;100159.66;;;28.59;38.61
35908;BME280;22003;50.320;8.054;2022-08-11T11:05:21;100182.84;;;28.07;38.72
35908;BME280;22003;50.320;8.054;2022-08-11T11:08:12;100173.22;;;29.03;40.04
35908;BME280;22003;50.320;8.054;2022-08-11T11:10:57;100172.59;;;29.49;40.64
35908;BME280;22003;50.320;8.054;2022-08-11T11:13:24;100159.25;;;28.92;37.67
35908;BME280;22003;50.320;8.054;2022-08-11T11:16:09;100142.72;;;29.24;39.53
35908;BME280;22003;50.320;8.054;2022-08-11T11:18:56;100167.81;;;29.98;38.88
35908;BME280;22003;50.320;8.054;2022-08-11T11:21:24;100138.00;;;29.73;39.14
35908;BME280;22003;50.320;8.054;2022-08-11T11:24:20;100165.94;;;29.98;38.93
35908;BME280;22003;50.320;8.054;2022-08-11T11:27:13;100148.09;;;29.42;38.08
35908;BME280;22003;50.320;8.054;2022-08-11T11:29:54;100153.31;;;29.74;37.87
35908;BME280;22003;50.320;8.054;2022-08-11T11:35:15;100142.41;;;30.44;37.26
35908;BME280;22003;50.320;8.054;2022-08-11T11:37:45;100139.19;;;30.36;37.12
35908;BME280;22003;50.320;8.054;2022-08-11T11:40:13;100112.97;;;30.00;36.56
35908;BME280;22003;50.320;8.054;2022-08-11T11:42:42;100133.59;;;30.54;37.60
35908;BME280;22003;50.320;8.054;2022-08-11T11:45:10;100136.66;;;30.58;38.39
35908;BME280;22003;50.320;8.054;2022-08-11T11:47:36;100123.16;;;29.92;38.00
35908;BME280;22003;50.320;8.054;2022-08-11T11:50:04;100125.91;;;30.04;37.07
35908;BME280;22003;50.320;8.054;2022-08-11T11:52:31;100119.59;;;29.27;37.22
35908;BME280;22003;50.320;8.054;2022-08-11T11:54:58;100110.06;;;28.87;38.04
35908;BME280;22003;50.320;8.054;2022-08-11T11:57:25;100090.25;;;28.92;37.53
35908;BME280;22003;50.320;8.054;2022-08-11T12:00:10;100117.38;;;29.47;37.57
35908;BME280;22003;50.320;8.054;2022-08-11T12:02:57;100113.53;;;30.25;37.81
35908;BME280;22003;50.320;8.054;2022-08-11T12:05:25;100107.25;;;30.88;37.32
35908;BME280;22003;50.320;8.054;2022-08-11T12:07:51;100103.88;;;31.26;36.23
35908;BME280;22003;50.320;8.054;2022-08-11T12:10:36;100072.56;;;30.02;36.03
35908;BME280;22003;50.320;8.054;2022-08-11T12:13:03;100109.63;;;29.74;37.21
35908;BME280;22003;50.320;8.054;2022-08-11T12:15:47;100102.25;;;30.33;36.95
35908;BME280;22003;50.320;8.054;2022-08-11T12:18:14;100098.78;;;30.90;36.56
35908;BME280;22003;50.320;8.054;2022-08-11T12:20:43;100092.81;;;31.21;35.74
35908;BME280;22003;50.320;8.054;2022-08-11T12:23:09;100088.56;;;30.85;35.06
35908;BME280;22003;50.320;8.054;2022-08-11T12:25:53;100100.97;;;31.50;36.20
35908;BME280;22003;50.320;8.054;2022-08-11T12:28:37;100070.13;;;31.09;35.10
35908;BME280;22003;50.320;8.054;2022-08-11T12:31:04;100074.28;;;31.12;35.45
35908;BME280;22003;50.320;8.054;2022-08-11T12:33:30;100067.09;;;30.13;35.40
35908;BME280;22003;50.320;8.054;2022-08-11T12:35:57;100069.94;;;30.07;35.66
35908;BME280;22003;50.320;8.054;2022-08-11T12:38:24;100060.28;;;30.39;35.89
35908;BME280;22003;50.320;8.054;2022-08-11T12:40:51;100065.53;;;30.98;35.30
35908;BME280;22003;50.320;8.054;2022-08-11T12:43:37;100060.50;;;31.07;34.92
35908;BME280;22003;50.320;8.054;2022-08-11T12:46:28;100070.91;;;29.77;37.42
35908;BME280;22003;50.320;8.054;2022-08-11T12:48:58;100062.59;;;29.95;37.38
35908;BME280;22003;50.320;8.054;2022-08-11T12:51:53;100060.56;;;29.91;36.39
35908;BME280;22003;50.320;8.054;2022-08-11T12:57:04;100057.66;;;30.85;36.98
35908;BME280;22003;50.320;8.054;2022-08-11T12:59:50;100053.31;;;31.17;35.07
35908;BME280;22003;50.320;8.054;2022-08-11T13:02:34;99980.25;;;31.18;34.68
35908;BME280;22003;50.320;8.054;2022-08-11T13:05:19;100045.88;;;31.30;35.62
35908;BME280;22003;50.320;8.054;2022-08-11T13:07:46;100037.38;;;31.65;35.32
35908;BME280;22003;50.320;8.054;2022-08-11T13:10:13;100040.16;;;31.31;34.88
35908;BME280;22003;50.320;8.054;2022-08-11T13:13:01;100036.22;;;31.77;35.77
35908;BME280;22003;50.320;8.054;2022-08-11T13:15:27;100039.91;;;31.49;35.23
35908;BME280;22003;50.320;8.054;2022-08-11T13:17:53;100015.88;;;32.12;35.30
35908;BME280;22003;50.320;8.054;2022-08-11T13:20:22;100034.53;;;32.10;34.16
35908;BME280;22003;50.320;8.054;2022-08-11T13:22:50;100032.06;;;31.75;35.16
35908;BME280;22003;50.320;8.054;2022-08-11T13:25:18;100011.84;;;31.98;34.82
35908;BME280;22003;50.320;8.054;2022-08-11T13:27:46;100022.25;;;32.18;36.90
35908;BME280;22003;50.320;8.054;2022-08-11T13:30:13;99993.50;;;30.64;35.31
35908;BME280;22003;50.320;8.054;2022-08-11T13:32:59;99994.78;;;31.35;34.79
35908;BME280;22003;50.320;8.054;2022-08-11T13:35:25;100021.84;;;30.86;35.01
35908;BME280;22003;50.320;8.054;2022-08-11T13:37:53;100019.53;;;31.79;35.02
35908;BME280;22003;50.320;8.054;2022-08-11T13:40:19;100016.22;;;31.77;35.34
35908;BME280;22003;50.320;8.054;2022-08-11T13:42:46;100005.63;;;32.02;35.05
35908;BME280;22003;50.320;8.054;2022-08-11T13:45:12;99981.16;;;32.18;34.79
35908;BME280;22003;50.320;8.054;2022-08-11T13:47:39;99990.16;;;32.35;33.74
35908;BME280;22003;50.320;8.054;2022-08-11T13:50:06;99999.44;;;32.34;33.82
35908;BME280;22003;50.320;8.054;2022-08-11T13:52:33;99976.06;;;32.26;34.33
35908;BME280;22003;50.320;8.054;2022-08-11T13:55:00;99964.59;;;32.56;33.65
35908;BME280;22003;50.320;8.054;2022-08-11T13:57:29;100001.06;;;31.36;34.37
35908;BME280;22003;50.320;8.054;2022-08-11T13:59:55;100004.53;;;31.14;34.82
35908;BME280;22003;50.320;8.054;2022-08-11T14:02:35;99989.91;;;31.93;34.33
35908;BME280;22003;50.320;8.054;2022-08-11T14:05:07;99995.44;;;32.42;33.61
35908;BME280;22003;50.320;8.054;2022-08-11T14:07:38;99994.16;;;32.49;32.78
35908;BME280;22003;50.320;8.054;2022-08-11T14:10:07;99979.47;;;32.61;33.34
35908;BME280;22003;50.320;8.054;2022-08-11T14:12:36;99907.91;;;32.35;32.19
35908;BME280;22003;50.320;8.054;2022-08-11T14:15:30;99952.44;;;32.47;33.77
35908;BME280;22003;50.320;8.054;2022-08-11T14:18:00;99974.13;;;32.27;34.16
35908;BME280;22003;50.320;8.054;2022-08-11T14:20:28;99967.69;;;30.71;35.02
35908;BME280;22003;50.320;8.054;2022-08-11T14:23:15;99974.03;;;31.39;34.92
35908;BME280;22003;50.320;8.054;2022-08-11T14:25:41;99949.25;;;31.68;34.98
35908;BME280;22003;50.320;8.054;2022-08-11T14:28:27;99957.78;;;30.82;34.94
35908;BME280;22003;50.320;8.054;2022-08-11T14:30:53;99958.84;;;30.98;36.14
35908;BME280;22003;50.320;8.054;2022-08-11T14:33:21;99959.25;;;31.79;34.37
35908;BME280;22003;50.320;8.054;2022-08-11T14:35:47;99959.91;;;31.14;35.27
35908;BME280;22003;50.320;8.054;2022-08-11T14:38:12;99942.44;;;31.48;36.38
35908;BME280;22003;50.320;8.054;2022-08-11T14:40:38;99949.78;;;32.09;34.65
35908;BME280;22003;50.320;8.054;2022-08-11T14:43:22;99941.00;;;32.06;33.64
35908;BME280;22003;50.320;8.054;2022-08-11T14:46:07;99946.13;;;32.47;35.62
35908;BME280;22003;50.320;8.054;2022-08-11T14:48:52;99939.41;;;31.89;34.63
35908;BME280;22003;50.320;8.054;2022-08-11T14:51:20;99928.50;;;32.38;33.13
35908;BME280;22003;50.320;8.054;2022-08-11T14:53:46;99926.88;;;32.42;33.14
35908;BME280;22003;50.320;8.054;2022-08-11T14:56:11;99928.66;;;31.82;33.64
35908;BME280;22003;50.320;8.054;2022-08-11T14:58:55;99930.38;;;31.88;35.43
35908;BME280;22003;50.320;8.054;2022-08-11T15:01:21;99928.88;;;31.80;33.64
35908;BME280;22003;50.320;8.054;2022-08-11T15:04:05;99930.50;;;31.98;33.26
35908;BME280;22003;50.320;8.054;2022-08-11T15:06:31;99907.94;;;31.91;33.59
35908;BME280;22003;50.320;8.054;2022-08-11T15:08:57;99928.41;;;31.45;34.80
35908;BME280;22003;50.320;8.054;2022-08-11T15:11:29;99919.34;;;31.83;34.72
35908;BME280;22003;50.320;8.054;2022-08-11T15:14:14;99907.06;;;31.69;33.32
35908;BME280;22003;50.320;8.054;2022-08-11T15:17:05;99914.09;;;31.82;34.06
35908;BME280;22003;50.320;8.054;2022-08-11T15:19:35;99914.88;;;32.26;33.57
35908;BME280;22003;50.320;8.054;2022-08-11T15:22:01;99917.59;;;32.43;33.78
35908;BME280;22003;50.320;8.054;2022-08-11T15:24:46;99903.47;;;32.34;34.22
35908;BME280;22003;50.320;8.054;2022-08-11T15:27:13;99902.09;;;31.83;33.90
35908;BME280;22003;50.320;8.054;2022-08-11T15:30:00;99897.34;;;31.78;33.87
35908;BME280;22003;50.320;8.054;2022-08-11T15:32:45;99893.53;;;32.28;33.88
35908;BME280;22003;50.320;8.054;2022-08-11T15:35:30;99901.06;;;31.28;33.96
35908;BME280;22003;50.320;8.054;2022-08-11T15:38:18;99902.53;;;31.36;34.32
35908;BME280;22003;50.320;8.054;2022-08-11T15:40:44;99888.78;;;31.74;34.34
35908;BME280;22003;50.320;8.054;2022-08-11T15:43:38;99894.53;;;31.73;34.40
35908;BME280;22003;50.320;8.054;2022-08-11T15:46:30;99901.50;;;31.42;34.07
35908;BME280;22003;50.320;8.054;2022-08-11T15:49:00;99885.38;;;31.84;34.42
35908;BME280;22003;50.320;8.054;2022-08-11T15:51:49;99886.38;;;31.56;33.89
35908;BME280;22003;50.320;8.054;2022-08-11T15:54:21;99881.56;;;31.85;34.10
35908;BME280;22003;50.320;8.054;2022-08-11T15:56:49;99883.66;;;31.78;34.05
35908;BME280;22003;50.320;8.054;2022-08-11T15:59:18;99870.72;;;31.51;34.03
35908;BME280;22003;50.320;8.054;2022-08-11T16:02:03;99866.19;;;31.40;33.85
35908;BME280;22003;50.320;8.054;2022-08-11T16:04:49;99839.44;;;31.47;34.07
35908;BME280;22003;50.320;8.054;2022-08-11T16:07:18;99866.47;;;32.64;32.78
35908;BME280;22003;50.320;8.054;2022-08-11T16:12:25;99870.91;;;32.70;33.76
35908;BME280;22003;50.320;8.054;2022-08-11T16:14:59;99846.22;;;32.11;32.75
35908;BME280;22003;50.320;8.054;2022-08-11T16:17:45;99861.22;;;32.30;34.43
35908;BME280;22003;50.320;8.054;2022-08-11T16:20:11;99862.72;;;31.89;34.04
35908;BME280;22003;50.320;8.054;2022-08-11T16:22:37;99826.06;;;31.95;33.45
35908;BME280;22003;50.320;8.054;2022-08-11T16:25:09;99854.22;;;31.46;34.40
35908;BME280;22003;50.320;8.054;2022-08-11T16:27:37;99859.75;;;31.13;34.49
35908;BME280;22003;50.320;8.054;2022-08-11T16:30:05;99859.19;;;31.11;34.31
35908;BME280;22003;50.320;8.054;2022-08-11T16:32:32;99854.34;;;31.78;33.70
35908;BME280;22003;50.320;8.054;2022-08-11T16:35:00;99850.88;;;32.10;32.91
35908;BME280;22003;50.320;8.054;2022-08-11T16:37:45;99838.41;;;32.51;32.33
35908;BME280;22003;50.320;8.054;2022-08-11T16:40:31;99850.56;;;32.61;31.93
35908;BME280;22003;50.320;8.054;2022-08-11T16:42:57;99856.22;;;32.86;32.19
35908;BME280;22003;50.320;8.054;2022-08-11T16:45:43;99854.94;;;34.14;31.71
35908;BME280;22003;50.320;8.054;2022-08-11T16:48:34;99843.13;;;34.13;31.05
35908;BME280;22003;50.320;8.054;2022-08-11T16:51:00;99859.97;;;32.75;32.32
35908;BME280;22003;50.320;8.054;2022-08-11T16:53:27;99843.50;;;32.11;33.28
35908;BME280;22003;50.320;8.054;2022-08-11T16:55:55;99847.50;;;31.59;33.70
35908;BME280;22003;50.320;8.054;2022-08-11T16:58:22;99848.66;;;31.41;34.53
35908;BME280;22003;50.320;8.054;2022-08-11T17:01:21;99836.19;;;31.94;34.20
35908;BME280;22003;50.320;8.054;2022-08-11T17:03:54;99844.53;;;32.04;33.45
35908;BME280;22003;50.320;8.054;2022-08-11T17:06:43;99845.75;;;32.46;33.91
35908;BME280;22003;50.320;8.054;2022-08-11T17:09:31;99846.56;;;31.70;34.19
35908;BME280;22003;50.320;8.054;2022-08-11T17:12:19;99843.59;;;31.94;34.81
35908;BME280;22003;50.320;8.054;2022-08-11T17:15:08;99839.19;;;31.10;34.74
35908;BME280;22003;50.320;8.054;2022-08-11T17:17:56;99810.31;;;29.73;36.19
35908;BME280;22003;50.320;8.054;2022-08-11T17:20:22;99829.97;;;30.78;35.16
35908;BME280;22003;50.320;8.054;2022-08-11T17:22:48;99823.00;;;31.25;35.12
35908;BME280;22003;50.320;8.054;2022-08-11T17:25:33;99832.94;;;31.53;34.71
35908;BME280;22003;50.320;8.054;2022-08-11T17:27:59;99837.41;;;30.99;35.07
35908;BME280;22003;50.320;8.054;2022-08-11T17:30:25;99818.56;;;30.86;35.32
35908;BME280;22003;50.320;8.054;2022-08-11T17:33:11;99832.59;;;30.89;35.05
35908;BME280;22003;50.320;8.054;2022-08-11T17:35:57;99811.28;;;30.24;35.17
35908;BME280;22003;50.320;8.054;2022-08-11T17:38:24;99815.34;;;30.21;35.64
35908;BME280;22003;50.320;8.054;2022-08-11T17:40:58;99768.44;;;29.67;36.06
35908;BME280;22003;50.320;8.054;2022-08-11T17:43:44;99831.28;;;30.13;36.30
35908;BME280;22003;50.320;8.054;2022-08-11T17:46:28;99832.41;;;30.00;35.56
35908;BME280;22003;50.320;8.054;2022-08-11T17:49:14;99810.00;;;29.58;35.95
35908;BME280;22003;50.320;8.054;2022-08-11T17:51:42;99834.09;;;29.61;36.27
35908;BME280;22003;50.320;8.054;2022-08-11T17:54:27;99837.56;;;29.44;36.80
35908;BME280;22003;50.320;8.054;2022-08-11T17:57:13;99828.78;;;29.31;37.01
35908;BME280;22003;50.320;8.054;2022-08-11T18:00:15;99805.13;;;28.96;36.77
35908;BME280;22003;50.320;8.054;2022-08-11T18:02:44;99832.03;;;29.04;36.73
35908;BME280;22003;50.320;8.054;2022-08-11T18:05:33;99841.47;;;28.43;37.48
35908;BME280;22003;50.320;8.054;2022-08-11T18:08:02;99840.75;;;27.69;38.97
35908;BME280;22003;50.320;8.054;2022-08-11T18:10:48;99831.13;;;27.18;39.28
35908;BME280;22003;50.320;8.054;2022-08-11T18:13:36;99841.94;;;27.00;39.54
35908;BME280;22003;50.320;8.054;2022-08-11T18:16:21;99853.22;;;26.78;40.22
35908;BME280;22003;50.320;8.054;2022-08-11T18:19:05;99859.03;;;26.57;40.69
35908;BME280;22003;50.320;8.054;2022-08-11T18:21:53;99838.53;;;26.29;40.95
35908;BME280;22003;50.320;8.054;2022-08-11T18:24:42;99834.72;;;26.44;40.03
35908;BME280;22003;50.320;8.054;2022-08-11T18:27:27;99861.66;;;26.39;40.42
35908;BME280;22003;50.320;8.054;2022-08-11T18:30:13;99836.28;;;26.26;40.34
35908;BME280;22003;50.320;8.054;2022-08-11T18:33:00;99872.22;;;26.22;40.77
35908;BME280;22003;50.320;8.054;2022-08-11T18:35:52;99863.13;;;26.10;40.63
35908;BME280;22003;50.320;8.054;2022-08-11T18:38:38;99867.31;;;26.05;40.77
35908;BME280;22003;50.320;8.054;2022-08-11T18:41:28;99872.59;;;25.87;40.69
35908;BME280;22003;50.320;8.054;2022-08-11T18:44:16;99862.59;;;25.88;40.71
35908;BME280;22003;50.320;8.054;2022-08-11T18:47:04;99869.88;;;25.87;40.35
35908;BME280;22003;50.320;8.054;2022-08-11T18:49:52;99872.69;;;25.74;40.73
35908;BME280;22003;50.320;8.054;2022-08-11T18:52:38;99874.59;;;25.53;41.19
35908;BME280;22003;50.320;8.054;2022-08-11T18:55:24;99840.03;;;25.36;41.17
35908;BME280;22003;50.320;8.054;2022-08-11T18:58:09;99874.84;;;25.45;41.34